Time;durP1;ratioP1;P1;durP2;ratioP2;P2;SDS_P1;SDS_P2;PMS_P1;PMS_P2;Temp;Humidity;BMP_temperature;BMP_pressure;BME280_temperature;BME280_humidity;BME280_pressure;Samples;Min_cycle;Max_cycle;Signal;HPM_P1;HPM_P2
2023/06/27 00:00:27;;;;;;;2.73;2.30;;;17.60;99.90;;;;;;5009011;28;20458;-72
2023/06/27 00:02:55;;;;;;;3.47;2.03;;;17.60;99.90;;;;;;5009281;28;20470;-72
2023/06/27 00:05:22;;;;;;;5.83;2.10;;;17.50;99.90;;;;;;5008429;28;21014;-72
2023/06/27 00:07:49;;;;;;;2.47;2.00;;;17.50;99.90;;;;;;5017230;28;20462;-72
2023/06/27 00:10:17;;;;;;;2.40;1.73;;;17.50;99.90;;;;;;5008580;28;21206;-72
2023/06/27 00:12:44;;;;;;;4.10;2.20;;;17.40;99.90;;;;;;5009179;28;20514;-73
2023/06/27 00:15:11;;;;;;;3.67;2.70;;;17.40;99.90;;;;;;5001969;28;20481;-72
2023/06/27 00:17:40;;;;;;;3.97;2.30;;;17.40;99.90;;;;;;5009093;28;20469;-72
2023/06/27 00:20:09;;;;;;;5.20;2.27;;;17.40;99.90;;;;;;5008173;28;20473;-72
2023/06/27 00:22:39;;;;;;;3.40;2.20;;;17.40;99.90;;;;;;5000477;28;20882;-72
2023/06/27 00:25:07;;;;;;;5.00;2.37;;;17.40;99.90;;;;;;5003158;28;20441;-72
2023/06/27 00:27:35;;;;;;;6.13;2.50;;;17.30;99.90;;;;;;5007836;28;20425;-72
2023/06/27 00:30:02;;;;;;;2.87;1.97;;;17.30;99.90;;;;;;5004037;28;20443;-72
2023/06/27 00:32:29;;;;;;;4.87;2.33;;;17.20;99.90;;;;;;5006642;28;20501;-72
2023/06/27 00:34:55;;;;;;;4.20;3.40;;;17.20;99.90;;;;;;5008717;28;21198;-72
2023/06/27 00:37:22;;;;;;;8.50;2.30;;;17.10;99.90;;;;;;5008620;28;20501;-72
2023/06/27 00:39:49;;;;;;;6.57;2.47;;;17.00;99.90;;;;;;5007512;28;20450;-74
2023/06/27 00:42:15;;;;;;;9.13;2.30;;;17.00;99.90;;;;;;5007897;28;20425;-74
2023/06/27 00:44:43;;;;;;;2.93;2.33;;;16.90;99.90;;;;;;5008887;28;20474;-73
2023/06/27 00:47:10;;;;;;;4.07;2.33;;;16.90;99.90;;;;;;5008540;28;21190;-73
2023/06/27 00:49:37;;;;;;;5.60;2.10;;;16.90;99.90;;;;;;5000397;28;20873;-73
2023/06/27 00:52:04;;;;;;;3.13;2.33;;;16.90;99.90;;;;;;5007689;28;20493;-73
2023/06/27 00:54:31;;;;;;;3.83;2.23;;;16.80;99.90;;;;;;5008407;28;20502;-73
2023/06/27 00:56:59;;;;;;;3.03;2.20;;;16.80;99.90;;;;;;5008346;28;20898;-73
2023/06/27 00:59:26;;;;;;;2.87;2.27;;;16.70;99.90;;;;;;5001986;28;20418;-73
2023/06/27 01:01:54;;;;;;;4.17;2.23;;;16.60;99.90;;;;;;5008531;28;20446;-73
2023/06/27 01:04:21;;;;;;;3.80;2.30;;;16.60;99.90;;;;;;5007381;28;20441;-73
2023/06/27 01:06:54;;;;;;;4.40;2.40;;;16.50;99.90;;;;;;5010309;28;20826;-73
2023/06/27 01:09:27;;;;;;;4.40;2.40;;;16.40;99.90;;;;;;5011570;28;20429;-73
2023/06/27 01:12:01;;;;;;;2.90;2.07;;;16.30;99.90;;;;;;5008449;28;20568;-72
2023/06/27 01:14:29;;;;;;;5.63;2.30;;;16.30;99.90;;;;;;5008088;28;21092;-73
2023/06/27 01:16:58;;;;;;;3.93;2.60;;;16.30;99.90;;;;;;5008364;28;20454;-72
2023/06/27 01:19:26;;;;;;;2.83;2.40;;;16.20;99.90;;;;;;5008028;28;21141;-72
2023/06/27 01:22:00;;;;;;;4.50;2.53;;;16.20;99.90;;;;;;5001917;28;20868;-72
2023/06/27 01:24:29;;;;;;;5.77;2.70;;;16.20;99.90;;;;;;4999472;28;20485;-73
2023/06/27 01:26:56;;;;;;;2.53;2.33;;;16.20;99.90;;;;;;5008537;28;20437;-72
2023/06/27 01:29:23;;;;;;;5.70;2.20;;;16.20;99.90;;;;;;5008171;28;20421;-72
2023/06/27 01:31:55;;;;;;;2.70;2.27;;;16.20;99.90;;;;;;4999894;28;20482;-72
2023/06/27 01:34:31;;;;;;;7.20;2.10;;;16.20;99.90;;;;;;5007075;28;20448;-72
2023/06/27 01:37:04;;;;;;;3.20;2.90;;;16.20;99.90;;;;;;5002754;28;20491;-72
2023/06/27 01:39:38;;;;;;;2.30;2.03;;;16.20;99.90;;;;;;5007896;28;20929;-72
2023/06/27 01:42:12;;;;;;;5.03;2.30;;;16.10;99.90;;;;;;5008102;28;20972;-72
2023/06/27 01:44:40;;;;;;;2.40;2.20;;;16.10;99.90;;;;;;5002792;28;20967;-73
2023/06/27 01:47:08;;;;;;;3.00;2.67;;;16.10;99.90;;;;;;5008171;28;20467;-72
2023/06/27 01:49:35;;;;;;;6.30;2.17;;;16.10;99.90;;;;;;5000483;28;20484;-72
2023/06/27 01:52:02;;;;;;;4.67;2.60;;;16.10;99.90;;;;;;4999391;28;20491;-72
2023/06/27 01:54:28;;;;;;;2.30;2.10;;;16.00;99.90;;;;;;5009357;28;20979;-73
2023/06/27 01:56:56;;;;;;;6.20;2.70;;;16.10;99.90;;;;;;5004922;28;20428;-72
2023/06/27 01:59:23;;;;;;;4.20;2.70;;;16.10;99.90;;;;;;5011787;28;20541;-72
2023/06/27 02:01:50;;;;;;;5.40;2.53;;;16.10;99.90;;;;;;5011175;28;20837;-72
2023/06/27 02:04:16;;;;;;;2.60;2.20;;;16.00;99.90;;;;;;5011501;28;20558;-72
2023/06/27 02:06:43;;;;;;;3.07;2.50;;;16.10;99.90;;;;;;5011814;28;20466;-72
2023/06/27 02:09:10;;;;;;;2.33;2.13;;;16.10;99.90;;;;;;4999124;28;20455;-72
2023/06/27 02:11:36;;;;;;;4.60;2.80;;;16.10;99.90;;;;;;5009991;28;21058;-72
2023/06/27 02:14:04;;;;;;;3.10;2.57;;;16.10;99.90;;;;;;5009105;28;20449;-72
2023/06/27 02:16:31;;;;;;;7.47;3.03;;;16.00;99.90;;;;;;5009404;28;20436;-72
2023/06/27 02:18:57;;;;;;;3.00;2.80;;;16.00;99.90;;;;;;5011441;28;20479;-72
2023/06/27 02:21:24;;;;;;;5.20;2.40;;;16.00;99.90;;;;;;5010410;28;20425;-72
2023/06/27 02:23:51;;;;;;;9.27;2.80;;;16.00;99.90;;;;;;5010955;28;20542;-72
2023/06/27 02:26:18;;;;;;;4.57;2.90;;;16.00;99.90;;;;;;5011407;28;20451;-72
2023/06/27 02:28:45;;;;;;;3.00;2.50;;;16.00;99.90;;;;;;5010555;28;20852;-73
2023/06/27 02:31:13;;;;;;;8.83;2.60;;;16.00;99.90;;;;;;5002924;28;20425;-72
2023/06/27 02:33:39;;;;;;;4.97;2.40;;;16.00;99.90;;;;;;5010785;28;20468;-72
2023/06/27 02:36:07;;;;;;;3.77;2.50;;;16.00;99.90;;;;;;5011112;28;20454;-72
2023/06/27 02:38:33;;;;;;;5.33;2.30;;;16.00;99.90;;;;;;5010851;28;20807;-73
2023/06/27 02:41:00;;;;;;;6.33;2.30;;;16.00;99.90;;;;;;5004613;28;20437;-73
2023/06/27 02:43:28;;;;;;;3.73;2.10;;;16.00;99.90;;;;;;5004565;28;20445;-72
2023/06/27 02:45:54;;;;;;;8.57;2.70;;;16.00;99.90;;;;;;5010247;28;21002;-72
2023/06/27 02:48:22;;;;;;;2.77;2.20;;;16.00;99.90;;;;;;5010876;28;20428;-72
2023/06/27 02:50:50;;;;;;;1.83;1.73;;;16.00;99.90;;;;;;5010547;28;20446;-72
2023/06/27 02:53:17;;;;;;;3.33;2.30;;;16.00;99.90;;;;;;5010703;28;20475;-72
2023/06/27 02:55:44;;;;;;;3.70;2.40;;;16.00;99.90;;;;;;5010169;28;20429;-72
2023/06/27 02:58:10;;;;;;;2.60;2.30;;;16.00;99.90;;;;;;5008776;28;20978;-73
2023/06/27 03:00:37;;;;;;;8.70;2.60;;;16.00;99.90;;;;;;5004456;28;20510;-72
2023/06/27 03:03:03;;;;;;;6.43;2.63;;;16.00;99.90;;;;;;5010440;28;20510;-73
2023/06/27 03:05:31;;;;;;;4.13;2.13;;;16.00;99.90;;;;;;5007946;28;20450;-72
2023/06/27 03:07:58;;;;;;;8.47;2.50;;;16.00;99.90;;;;;;4998460;28;20684;-72
2023/06/27 03:10:25;;;;;;;2.57;2.37;;;16.00;99.90;;;;;;5000486;28;20450;-72
2023/06/27 03:12:51;;;;;;;5.13;2.47;;;16.00;99.90;;;;;;5010571;28;20465;-73
2023/06/27 03:15:18;;;;;;;2.83;2.27;;;16.00;99.90;;;;;;5008564;28;20450;-72
2023/06/27 03:17:44;;;;;;;2.67;2.37;;;16.00;99.90;;;;;;5009573;28;20429;-72
2023/06/27 03:20:12;;;;;;;5.17;2.70;;;15.90;99.90;;;;;;5009972;28;20450;-72
2023/06/27 03:22:40;;;;;;;2.30;2.17;;;15.90;99.90;;;;;;5002165;28;20505;-72
2023/06/27 03:25:10;;;;;;;3.43;2.67;;;15.90;99.90;;;;;;5010222;28;20429;-72
2023/06/27 03:27:37;;;;;;;8.23;2.67;;;15.80;99.90;;;;;;5002936;28;20544;-72
2023/06/27 03:30:04;;;;;;;6.60;2.77;;;15.80;99.90;;;;;;5009151;28;20432;-72
2023/06/27 03:32:30;;;;;;;5.37;2.70;;;15.90;99.90;;;;;;5010048;28;20464;-72
2023/06/27 03:34:57;;;;;;;3.43;2.50;;;15.90;99.90;;;;;;5009855;28;20923;-72
2023/06/27 03:37:23;;;;;;;9.30;2.73;;;15.80;99.90;;;;;;5003916;28;20508;-72
2023/06/27 03:39:51;;;;;;;3.17;2.30;;;15.90;99.90;;;;;;5008078;28;20433;-73
2023/06/27 03:42:19;;;;;;;4.60;2.47;;;15.80;99.90;;;;;;5009797;28;20455;-72
2023/06/27 03:44:45;;;;;;;3.80;2.40;;;15.80;99.90;;;;;;5009662;28;20470;-72
2023/06/27 03:47:12;;;;;;;6.60;2.90;;;15.80;99.90;;;;;;5010090;28;20456;-72
2023/06/27 03:49:39;;;;;;;4.90;2.63;;;15.80;99.90;;;;;;5007490;28;20998;-72
2023/06/27 03:52:06;;;;;;;4.60;2.60;;;15.70;99.90;;;;;;5003266;28;20478;-72
2023/06/27 03:54:32;;;;;;;2.80;2.60;;;15.60;99.90;;;;;;5008636;28;20482;-72
2023/06/27 03:57:00;;;;;;;2.73;2.50;;;15.60;99.90;;;;;;5009496;28;20446;-72
2023/06/27 03:59:27;;;;;;;2.70;2.50;;;15.60;99.90;;;;;;5009922;28;21065;-73
2023/06/27 04:01:54;;;;;;;7.10;2.90;;;15.60;99.90;;;;;;5009769;28;20483;-72
2023/06/27 04:04:20;;;;;;;5.53;2.87;;;15.70;99.90;;;;;;5009460;28;20441;-72
2023/06/27 04:06:47;;;;;;;3.90;2.80;;;15.70;99.90;;;;;;5010367;28;20449;-72
2023/06/27 04:09:13;;;;;;;4.23;2.90;;;15.70;99.90;;;;;;5002195;28;20492;-72
2023/06/27 04:11:40;;;;;;;4.47;3.03;;;15.80;99.90;;;;;;4999150;28;20501;-72
2023/06/27 04:14:08;;;;;;;4.37;2.87;;;15.80;99.90;;;;;;5009331;28;20500;-72
2023/06/27 04:16:35;;;;;;;6.03;2.80;;;15.80;99.90;;;;;;5003918;28;20459;-72
2023/06/27 04:19:01;;;;;;;3.43;3.00;;;15.70;99.90;;;;;;5008666;28;20467;-72
2023/06/27 04:21:28;;;;;;;4.87;3.00;;;15.60;99.90;;;;;;5009082;28;20436;-72
2023/06/27 04:23:56;;;;;;;5.70;3.40;;;15.60;99.90;;;;;;5000991;28;20462;-72
2023/06/27 04:26:24;;;;;;;14.33;4.03;;;15.50;99.90;;;;;;5008052;28;20512;-72
2023/06/27 04:28:50;;;;;;;6.20;3.80;;;15.50;99.90;;;;;;5009213;28;20429;-73
2023/06/27 04:31:18;;;;;;;8.53;3.30;;;15.40;99.90;;;;;;5008806;28;20425;-72
2023/06/27 04:33:45;;;;;;;4.43;3.80;;;15.40;99.90;;;;;;5002410;28;20491;-72
2023/06/27 04:36:15;;;;;;;5.63;3.40;;;15.40;99.90;;;;;;5008866;28;20450;-72
2023/06/27 04:38:43;;;;;;;10.87;3.43;;;15.40;99.90;;;;;;5008856;28;20421;-72
2023/06/27 04:41:11;;;;;;;4.33;3.53;;;15.40;99.90;;;;;;5008839;28;20848;-72
2023/06/27 04:43:40;;;;;;;7.33;3.77;;;15.50;99.90;;;;;;5004586;28;20474;-72
2023/06/27 04:46:06;;;;;;;5.73;3.83;;;15.60;99.90;;;;;;5008938;28;20454;-72
2023/06/27 04:48:34;;;;;;;7.10;3.43;;;15.60;99.90;;;;;;5008681;28;20461;-72
2023/06/27 04:51:01;;;;;;;7.60;3.03;;;15.70;99.90;;;;;;5008541;28;20487;-73
2023/06/27 04:53:28;;;;;;;5.73;3.47;;;15.70;99.90;;;;;;5008330;28;20501;-72
2023/06/27 04:55:55;;;;;;;7.10;3.70;;;15.80;99.90;;;;;;5008401;28;20448;-73
2023/06/27 04:58:21;;;;;;;6.03;3.20;;;15.80;99.90;;;;;;5007820;28;20508;-73
2023/06/27 05:00:51;;;;;;;4.87;3.07;;;15.90;99.90;;;;;;5006600;28;20436;-73
2023/06/27 05:03:18;;;;;;;13.50;3.47;;;16.00;99.90;;;;;;5004463;28;20959;-73
2023/06/27 05:05:46;;;;;;;3.33;3.03;;;16.30;99.90;;;;;;5010343;28;20435;-73
2023/06/27 05:08:13;;;;;;;7.83;3.43;;;16.60;99.90;;;;;;5009742;28;20469;-73
2023/06/27 05:10:39;;;;;;;4.70;3.40;;;16.90;99.90;;;;;;5008383;28;20452;-73
2023/06/27 05:13:06;;;;;;;6.13;3.50;;;17.10;99.90;;;;;;5003490;28;20485;-73
2023/06/27 05:15:33;;;;;;;7.20;3.10;;;17.30;99.90;;;;;;5010498;28;20460;-73
2023/06/27 05:18:24;;;;;;;3.33;3.03;;;17.50;99.90;;;;;;5009134;28;20425;-73
2023/06/27 05:20:53;;;;;;;5.83;3.23;;;17.80;99.90;;;;;;5007854;28;20432;-73
2023/06/27 05:23:20;;;;;;;6.57;3.13;;;17.90;99.90;;;;;;5010232;28;20445;-71
2023/06/27 05:25:47;;;;;;;4.47;3.30;;;17.80;99.90;;;;;;5011443;28;20812;-71
2023/06/27 05:28:14;;;;;;;4.70;2.80;;;17.70;99.90;;;;;;5008911;28;20454;-71
2023/06/27 05:30:41;;;;;;;4.97;3.03;;;17.60;99.90;;;;;;5003953;28;20458;-71
2023/06/27 05:33:07;;;;;;;10.47;3.53;;;17.50;99.90;;;;;;5010527;28;20470;-71
2023/06/27 05:35:34;;;;;;;11.93;3.10;;;17.50;99.90;;;;;;5010345;28;21135;-71
2023/06/27 05:38:02;;;;;;;6.17;2.83;;;17.50;99.90;;;;;;5006775;28;20445;-71
2023/06/27 05:40:29;;;;;;;6.20;2.70;;;17.60;99.90;;;;;;5008118;28;20459;-71
2023/06/27 05:42:55;;;;;;;3.70;2.60;;;17.70;99.90;;;;;;5009993;28;20441;-71
2023/06/27 05:45:22;;;;;;;5.67;2.47;;;18.00;99.90;;;;;;5012955;28;20512;-71
2023/06/27 05:47:48;;;;;;;11.80;2.53;;;18.20;99.90;;;;;;5009292;28;20527;-71
2023/06/27 05:50:15;;;;;;;4.50;2.47;;;18.30;99.90;;;;;;5008173;28;20863;-71
2023/06/27 05:52:42;;;;;;;6.33;2.43;;;18.20;99.90;;;;;;5005810;28;20454;-72
2023/06/27 05:55:10;;;;;;;3.83;2.63;;;18.10;99.90;;;;;;5006904;28;20450;-71
2023/06/27 05:57:36;;;;;;;4.00;2.90;;;17.90;99.90;;;;;;5007834;28;20451;-71
2023/06/27 06:00:05;;;;;;;3.83;2.73;;;17.90;99.90;;;;;;5003972;28;20430;-71
2023/06/27 06:02:32;;;;;;;9.10;2.93;;;18.00;99.90;;;;;;5005038;28;20546;-71
2023/06/27 06:05:00;;;;;;;6.30;2.53;;;18.00;99.90;;;;;;5005349;28;20858;-71
2023/06/27 06:07:27;;;;;;;4.07;2.80;;;18.10;99.90;;;;;;4991510;28;20459;-71
2023/06/27 06:09:54;;;;;;;4.37;2.80;;;18.20;99.90;;;;;;4999273;28;20524;-71
2023/06/27 06:12:22;;;;;;;4.47;2.87;;;18.20;99.90;;;;;;5013701;28;21061;-71
2023/06/27 06:14:48;;;;;;;4.27;2.70;;;18.20;99.90;;;;;;5011852;28;20563;-71
2023/06/27 06:17:15;;;;;;;7.47;2.93;;;18.30;99.90;;;;;;5013249;28;20450;-71
2023/06/27 06:19:42;;;;;;;6.27;2.97;;;18.40;99.90;;;;;;5013829;28;20537;-71
2023/06/27 06:22:09;;;;;;;2.63;2.43;;;18.70;99.90;;;;;;5013808;28;20457;-72
2023/06/27 06:24:35;;;;;;;7.47;3.27;;;18.90;99.90;;;;;;5014184;28;20474;-72
2023/06/27 06:27:02;;;;;;;6.43;3.27;;;19.10;99.90;;;;;;5013086;28;21073;-72
2023/06/27 06:29:30;;;;;;;3.83;3.17;;;19.20;99.90;;;;;;5013738;28;20462;-72
2023/06/27 06:31:57;;;;;;;12.17;3.20;;;19.20;99.90;;;;;;5013134;28;20945;-71
2023/06/27 06:34:23;;;;;;;4.47;2.97;;;19.30;99.90;;;;;;5013755;28;20488;-71
2023/06/27 06:36:51;;;;;;;4.57;3.30;;;19.40;99.90;;;;;;5014170;28;21019;-72
2023/06/27 06:39:18;;;;;;;7.43;3.33;;;19.40;99.90;;;;;;5015517;28;20449;-72
2023/06/27 06:41:44;;;;;;;6.27;3.20;;;19.30;99.90;;;;;;5017526;28;20487;-72
2023/06/27 06:44:11;;;;;;;5.43;3.13;;;19.20;99.90;;;;;;5017115;28;20476;-72
2023/06/27 06:46:41;;;;;;;9.37;3.60;;;19.30;99.90;;;;;;5017322;28;20456;-71
2023/06/27 06:49:09;;;;;;;11.97;3.30;;;19.50;99.90;;;;;;5017289;28;21784;-71
2023/06/27 06:51:36;;;;;;;5.83;2.80;;;19.90;99.90;;;;;;5016932;28;20453;-72
2023/06/27 06:54:02;;;;;;;5.70;3.00;;;20.30;99.90;;;;;;5016976;28;20570;-71
2023/06/27 06:56:29;;;;;;;10.00;4.00;;;20.50;99.90;;;;;;5017472;28;20881;-72
2023/06/27 06:58:56;;;;;;;5.90;2.63;;;20.50;99.90;;;;;;5016436;28;20468;-71
2023/06/27 07:01:23;;;;;;;3.73;2.90;;;20.60;99.90;;;;;;5016790;28;20930;-72
2023/06/27 07:03:50;;;;;;;5.67;3.00;;;21.00;99.90;;;;;;5016880;28;20454;-73
2023/06/27 07:06:17;;;;;;;4.53;2.77;;;21.30;99.90;;;;;;5017235;28;21007;-71
2023/06/27 07:08:44;;;;;;;6.43;2.70;;;21.40;99.90;;;;;;5016287;28;20453;-71
2023/06/27 07:11:10;;;;;;;6.30;2.93;;;21.60;99.90;;;;;;5016472;28;20521;-70
2023/06/27 07:13:37;;;;;;;10.03;2.87;;;21.80;99.90;;;;;;5016600;28;20910;-71
2023/06/27 07:16:04;;;;;;;9.10;2.67;;;22.00;99.90;;;;;;5016736;28;20521;-71
2023/06/27 07:18:31;;;;;;;5.13;2.57;;;22.10;99.90;;;;;;5016269;28;21253;-71
2023/06/27 07:20:59;;;;;;;8.53;2.87;;;22.10;99.90;;;;;;5015836;28;20449;-72
2023/06/27 07:23:26;;;;;;;4.80;2.57;;;22.20;99.90;;;;;;5016839;28;20474;-71
2023/06/27 07:25:53;;;;;;;8.57;2.60;;;22.30;99.90;;;;;;5016339;28;20449;-71
2023/06/27 07:28:20;;;;;;;5.77;2.63;;;22.20;99.90;;;;;;5016330;28;20967;-72
2023/06/27 07:30:47;;;;;;;5.13;2.57;;;22.30;99.90;;;;;;5015501;28;20437;-72
2023/06/27 07:33:14;;;;;;;4.30;2.30;;;22.50;99.90;;;;;;5015689;28;20849;-71
2023/06/27 07:35:41;;;;;;;7.23;2.93;;;22.40;99.90;;;;;;5016045;28;20520;-72
2023/06/27 07:38:09;;;;;;;6.50;2.90;;;22.50;99.90;;;;;;5016610;28;21293;-72
2023/06/27 07:40:35;;;;;;;3.20;2.30;;;22.60;99.90;;;;;;5016157;28;20525;-71
2023/06/27 07:43:02;;;;;;;5.00;2.70;;;22.80;99.90;;;;;;5016073;28;20505;-72
2023/06/27 07:45:29;;;;;;;7.47;2.23;;;22.60;99.90;;;;;;5017372;28;20458;-71
2023/06/27 07:47:56;;;;;;;4.43;2.40;;;22.60;99.90;;;;;;5016589;28;20969;-71
2023/06/27 07:50:22;;;;;;;4.30;2.03;;;22.80;99.90;;;;;;5014748;28;20808;-71
2023/06/27 07:52:49;;;;;;;11.20;2.70;;;22.90;99.90;;;;;;5016387;28;20539;-71
2023/06/27 07:55:17;;;;;;;6.90;2.20;;;23.00;99.90;;;;;;5015514;28;20484;-71
2023/06/27 07:57:43;;;;;;;5.17;2.50;;;22.80;99.90;;;;;;5015158;28;20462;-71
2023/06/27 08:00:12;;;;;;;13.10;3.17;;;22.90;99.90;;;;;;5015245;28;20470;-72
2023/06/27 08:02:39;;;;;;;5.53;2.70;;;22.80;99.90;;;;;;5015659;28;21166;-72
2023/06/27 08:05:07;;;;;;;2.93;2.20;;;23.00;99.90;;;;;;5016010;28;20439;-72
2023/06/27 08:07:33;;;;;;;5.47;2.50;;;23.00;99.90;;;;;;5015167;28;20507;-72
2023/06/27 08:10:00;;;;;;;6.83;2.50;;;22.80;99.90;;;;;;5015693;28;20462;-72
2023/06/27 08:12:28;;;;;;;3.40;2.27;;;22.60;99.90;;;;;;5016041;28;20522;-72
2023/06/27 08:14:55;;;;;;;5.73;2.50;;;22.80;99.90;;;;;;5015540;28;20501;-72
2023/06/27 08:17:21;;;;;;;8.10;2.17;;;22.80;99.90;;;;;;5015806;28;20973;-72
2023/06/27 08:19:48;;;;;;;7.20;2.63;;;23.20;99.90;;;;;;5014811;28;20467;-72
2023/06/27 08:22:15;;;;;;;4.03;2.40;;;23.60;99.90;;;;;;5014272;28;20457;-72
2023/06/27 08:24:41;;;;;;;5.60;2.60;;;23.80;99.90;;;;;;5014706;28;20509;-72
2023/06/27 08:27:08;;;;;;;3.73;2.20;;;23.50;99.90;;;;;;5015291;28;20507;-72
2023/06/27 08:29:36;;;;;;;5.10;2.33;;;23.50;99.90;;;;;;5015092;28;20453;-71
2023/06/27 08:32:03;;;;;;;5.60;2.60;;;23.80;99.90;;;;;;5014612;28;21597;-72
2023/06/27 08:34:31;;;;;;;6.40;2.53;;;24.00;99.90;;;;;;5014750;28;20493;-72
2023/06/27 08:36:58;;;;;;;6.80;2.30;;;24.10;99.90;;;;;;5015418;28;20465;-72
2023/06/27 08:39:25;;;;;;;2.90;2.07;;;23.80;99.90;;;;;;5015456;28;21221;-72
2023/06/27 08:41:52;;;;;;;2.80;2.00;;;23.90;99.90;;;;;;5015106;28;20527;-71
2023/06/27 08:44:19;;;;;;;3.93;2.17;;;24.20;99.90;;;;;;5015482;28;20470;-71
2023/06/27 08:46:48;;;;;;;5.33;2.10;;;24.30;99.90;;;;;;5014702;28;20449;-71
2023/06/27 08:49:21;;;;;;;2.70;2.27;;;24.50;99.90;;;;;;5015070;28;20504;-71
2023/06/27 08:51:50;;;;;;;4.07;1.70;;;24.60;99.90;;;;;;5015488;28;20465;-72
2023/06/27 08:54:24;;;;;;;5.00;2.10;;;24.60;99.90;;;;;;5014767;28;20485;-72
2023/06/27 08:56:51;;;;;;;3.10;1.80;;;25.00;99.90;;;;;;5015039;28;20454;-72
2023/06/27 08:59:20;;;;;;;3.10;1.77;;;25.20;99.90;;;;;;5016080;28;20450;-72
2023/06/27 09:01:49;;;;;;;2.07;1.73;;;25.50;99.90;;;;;;5014272;28;20449;-72
2023/06/27 09:04:16;;;;;;;6.80;2.30;;;25.40;99.90;;;;;;5014038;28;20474;-72
2023/06/27 09:06:44;;;;;;;3.57;2.27;;;25.00;99.90;;;;;;5013611;28;20500;-72
2023/06/27 09:09:12;;;;;;;7.90;1.73;;;24.90;99.90;;;;;;5015078;28;20865;-72
2023/06/27 09:11:39;;;;;;;4.00;1.80;;;24.80;99.90;;;;;;5013945;28;20724;-72
2023/06/27 09:14:06;;;;;;;3.33;1.90;;;24.00;99.90;;;;;;5014318;28;20469;-72
2023/06/27 09:16:34;;;;;;;3.43;1.80;;;23.80;99.90;;;;;;5014909;28;20458;-71
2023/06/27 09:19:02;;;;;;;4.17;2.13;;;23.90;99.90;;;;;;5014964;28;20480;-72
2023/06/27 09:21:34;;;;;;;2.77;2.00;;;24.30;99.90;;;;;;5014603;28;20478;-72
2023/06/27 09:24:05;;;;;;;3.00;2.30;;;24.70;99.90;;;;;;5014128;28;21009;-72
2023/06/27 09:26:32;;;;;;;2.30;1.87;;;24.90;99.90;;;;;;5014425;28;21045;-72
2023/06/27 09:29:00;;;;;;;2.30;1.67;;;24.90;99.90;;;;;;5015028;28;20506;-72
2023/06/27 09:31:28;;;;;;;2.40;2.20;;;24.30;99.90;;;;;;5013573;28;20481;-73
2023/06/27 09:34:06;;;;;;;5.93;2.30;;;24.10;99.90;;;;;;5014126;28;20565;-72
2023/06/27 09:36:34;;;;;;;10.83;2.70;;;24.20;99.90;;;;;;5014273;28;20453;-72
2023/06/27 09:39:01;;;;;;;5.20;2.60;;;24.10;99.90;;;;;;5014526;28;20962;-72
2023/06/27 09:41:40;;;;;;;2.53;1.80;;;24.10;99.90;;;;;;5014315;28;20465;-72
2023/06/27 09:44:11;;;;;;;4.20;2.00;;;24.50;99.90;;;;;;5014082;28;20480;-72
2023/06/27 09:46:38;;;;;;;2.37;1.73;;;24.50;99.90;;;;;;5014009;28;20464;-72
2023/06/27 09:49:09;;;;;;;3.40;1.90;;;24.50;99.90;;;;;;5014999;28;20532;-73
2023/06/27 09:51:36;;;;;;;6.60;1.60;;;24.50;99.90;;;;;;5014391;28;20887;-72
2023/06/27 09:54:03;;;;;;;6.40;1.90;;;24.90;99.90;;;;;;5013930;28;20481;-72
2023/06/27 09:56:31;;;;;;;4.50;1.87;;;25.10;99.90;;;;;;5013589;28;20553;-71
2023/06/27 09:58:57;;;;;;;3.17;2.10;;;24.60;99.90;;;;;;5014544;28;20449;-71
2023/06/27 10:01:25;;;;;;;4.37;1.80;;;24.20;99.90;;;;;;5014259;28;20453;-72
2023/06/27 10:03:51;;;;;;;4.23;1.97;;;24.20;99.90;;;;;;5014230;28;20849;-72
2023/06/27 10:06:20;;;;;;;3.97;2.03;;;24.50;99.90;;;;;;5014276;28;20516;-71
2023/06/27 10:08:47;;;;;;;3.00;2.10;;;24.80;99.90;;;;;;5014139;28;20532;-72
2023/06/27 10:11:14;;;;;;;2.50;2.23;;;25.10;99.90;;;;;;5013609;28;20466;-73
2023/06/27 10:13:41;;;;;;;2.60;1.90;;;25.30;99.90;;;;;;5014298;28;20482;-71
2023/06/27 10:16:09;;;;;;;5.10;3.30;;;25.40;99.90;;;;;;5017552;28;20484;-72
2023/06/27 10:18:35;;;;;;;5.30;2.63;;;25.30;99.90;;;;;;5017923;28;20465;-71
2023/06/27 10:21:02;;;;;;;6.43;2.13;;;24.60;99.90;;;;;;5018190;28;20445;-72
2023/06/27 10:23:32;;;;;;;9.73;2.10;;;24.50;99.90;;;;;;5017382;28;20493;-72
2023/06/27 10:25:59;;;;;;;2.13;1.93;;;24.30;99.90;;;;;;5017327;28;20441;-72
2023/06/27 10:28:29;;;;;;;5.93;2.50;;;24.40;99.90;;;;;;5017431;28;20505;-71
2023/06/27 10:30:56;;;;;;;4.57;2.03;;;24.50;99.90;;;;;;5017303;28;20441;-72
2023/06/27 10:33:28;;;;;;;3.93;2.40;;;24.30;99.90;;;;;;5017140;28;20984;-71
2023/06/27 10:35:59;;;;;;;2.83;2.23;;;24.20;99.90;;;;;;5017366;28;20512;-72
2023/06/27 10:38:35;;;;;;;2.60;2.20;;;23.80;99.90;;;;;;5017242;28;21037;-71
2023/06/27 10:41:12;;;;;;;4.63;2.10;;;23.80;99.90;;;;;;5016717;28;20453;-72
2023/06/27 10:43:40;;;;;;;2.13;1.77;;;23.80;99.90;;;;;;5015765;28;20492;-72
2023/06/27 10:46:08;;;;;;;3.93;1.70;;;23.50;99.90;;;;;;5016709;28;20504;-71
2023/06/27 10:48:36;;;;;;;2.60;2.10;;;23.40;99.90;;;;;;5016892;28;20484;-72
2023/06/27 10:51:07;;;;;;;4.23;1.87;;;23.60;99.90;;;;;;5017044;28;20470;-71
2023/06/27 10:53:35;;;;;;;6.93;2.20;;;24.00;99.90;;;;;;5016635;28;20630;-71
2023/06/27 10:56:15;;;;;;;11.03;2.40;;;24.00;99.90;;;;;;5016692;28;20265;-72
2023/06/27 10:58:46;;;;;;;6.63;2.20;;;24.00;99.90;;;;;;5016952;28;20919;-69
2023/06/27 11:01:13;;;;;;;4.73;2.33;;;23.90;99.90;;;;;;5016436;28;20263;-68
2023/06/27 11:03:47;;;;;;;4.50;2.03;;;24.00;99.90;;;;;;5016795;28;20539;-69
2023/06/27 11:06:14;;;;;;;4.67;1.87;;;24.20;99.90;;;;;;5016133;28;20449;-69
2023/06/27 11:08:42;;;;;;;3.83;2.10;;;24.50;99.90;;;;;;5016292;28;20461;-70
2023/06/27 11:11:10;;;;;;;3.80;2.23;;;24.90;99.90;;;;;;5015197;28;20465;-69
2023/06/27 11:13:39;;;;;;;6.10;1.97;;;25.40;99.90;;;;;;5016834;28;21053;-69
2023/06/27 11:16:06;;;;;;;2.33;2.00;;;25.30;99.90;;;;;;5016347;28;20477;-69
2023/06/27 11:18:34;;;;;;;8.53;2.40;;;25.30;99.90;;;;;;5016880;28;20449;-69
2023/06/27 11:21:02;;;;;;;3.97;3.00;;;25.30;99.90;;;;;;5016466;28;20807;-69
2023/06/27 11:23:30;;;;;;;3.00;1.93;;;25.40;99.90;;;;;;5016470;28;20946;-69
2023/06/27 11:25:59;;;;;;;6.57;1.97;;;25.40;99.90;;;;;;5015293;28;20576;-70
2023/06/27 11:28:26;;;;;;;2.73;2.00;;;25.30;99.90;;;;;;5017050;28;20465;-69
2023/06/27 11:30:59;;;;;;;9.50;2.00;;;25.20;99.90;;;;;;5015044;28;20457;-69
2023/06/27 11:33:26;;;;;;;2.30;1.70;;;25.40;99.90;;;;;;5016210;28;20509;-70
2023/06/27 11:35:57;;;;;;;6.73;2.00;;;25.50;99.90;;;;;;5016233;28;20488;-70
2023/06/27 11:38:24;;;;;;;10.63;2.00;;;25.50;99.90;;;;;;5015830;28;20464;-69
2023/06/27 11:40:51;;;;;;;6.60;2.40;;;25.40;99.90;;;;;;5015094;28;20463;-70
2023/06/27 11:43:20;;;;;;;6.30;2.20;;;25.20;99.90;;;;;;5015807;28;20484;-69
2023/06/27 11:45:47;;;;;;;5.90;2.10;;;25.10;99.10;;;;;;5016029;28;20442;-69
2023/06/27 11:48:14;;;;;;;3.20;2.07;;;25.00;99.80;;;;;;5016385;28;20507;-69
2023/06/27 11:50:55;;;;;;;4.07;1.90;;;25.30;99.90;;;;;;5016310;28;21046;-69
2023/06/27 11:53:24;;;;;;;5.27;1.90;;;25.50;99.10;;;;;;5015847;28;21020;-69
2023/06/27 11:55:50;;;;;;;2.70;1.90;;;25.60;99.10;;;;;;5015788;28;20478;-70
2023/06/27 11:58:26;;;;;;;1.93;1.80;;;25.60;98.20;;;;;;5016107;28;20503;-69
2023/06/27 12:00:53;;;;;;;3.00;2.07;;;25.20;97.90;;;;;;5015537;28;20520;-70
2023/06/27 12:03:25;;;;;;;2.70;1.77;;;25.10;98.90;;;;;;5015276;28;20482;-69
2023/06/27 12:05:54;;;;;;;5.30;2.63;;;25.10;99.20;;;;;;5015990;28;20868;-69
2023/06/27 12:08:22;;;;;;;7.57;1.90;;;25.10;98.50;;;;;;5016298;28;20458;-69
2023/06/27 12:10:52;;;;;;;4.73;2.27;;;25.20;99.30;;;;;;5015510;28;20465;-69
2023/06/27 12:13:20;;;;;;;2.93;2.30;;;25.40;99.30;;;;;;5015636;28;21033;-70
2023/06/27 12:15:47;;;;;;;3.80;2.07;;;25.50;99.00;;;;;;5014681;28;21230;-69
2023/06/27 12:18:23;;;;;;;6.90;2.03;;;25.40;99.00;;;;;;5015633;28;20453;-69
2023/06/27 12:20:51;;;;;;;4.70;2.20;;;25.10;99.10;;;;;;5014725;28;20461;-69
2023/06/27 12:23:19;;;;;;;5.23;2.20;;;25.10;98.60;;;;;;5014747;28;20461;-69
2023/06/27 12:25:46;;;;;;;3.83;2.03;;;25.00;99.00;;;;;;5015159;28;20454;-69
2023/06/27 12:28:13;;;;;;;7.17;2.27;;;25.00;98.20;;;;;;5014677;28;20512;-69
2023/06/27 12:30:42;;;;;;;7.23;2.27;;;25.10;98.90;;;;;;5014992;28;20449;-69
2023/06/27 12:33:09;;;;;;;9.03;1.80;;;25.30;98.40;;;;;;5015261;28;20473;-68
2023/06/27 12:35:36;;;;;;;4.60;2.30;;;25.30;98.50;;;;;;5014920;28;20535;-69
2023/06/27 12:38:02;;;;;;;7.30;2.10;;;25.30;98.40;;;;;;5014863;28;20454;-69
2023/06/27 12:40:29;;;;;;;3.87;1.93;;;25.30;98.90;;;;;;5015327;28;20454;-69
2023/06/27 12:42:57;;;;;;;6.57;2.30;;;25.40;98.80;;;;;;5014417;28;20977;-69
2023/06/27 12:45:24;;;;;;;3.00;2.57;;;25.50;99.30;;;;;;5014133;28;20464;-69
2023/06/27 12:47:52;;;;;;;4.73;2.27;;;25.50;98.40;;;;;;5014553;28;20458;-70